Time;durP1;ratioP1;P1;durP2;ratioP2;P2;SDS_P1;SDS_P2;PMS_P1;PMS_P2;Temp;Humidity;BMP_temperature;BMP_pressure;BME280_temperature;BME280_humidity;BME280_pressure;Samples;Min_cycle;Max_cycle;Signal;HPM_P1;HPM_P2
2022/12/01 00:00:53;;;;;;;50.43;26.23;;;-1.30;99.90;;;;;;4163276;28;20255;-62
2022/12/01 00:02:54;;;;;;;48.73;26.00;;;-1.30;99.90;;;;;;4163128;28;20267;-60
2022/12/01 00:04:56;;;;;;;51.40;28.33;;;-1.20;99.90;;;;;;4162992;28;20266;-61
2022/12/01 00:06:57;;;;;;;50.57;25.93;;;-1.30;99.90;;;;;;4163097;28;20329;-60
2022/12/01 00:11:18;;;;;;;52.07;27.73;;;-1.30;99.90;;;;;;4155119;28;20658;-60
2022/12/01 00:13:19;;;;;;;52.63;27.87;;;-1.20;99.90;;;;;;4162850;28;20738;-61
2022/12/01 00:15:21;;;;;;;54.00;27.17;;;-1.20;99.90;;;;;;4163767;28;20266;-61
2022/12/01 00:17:22;;;;;;;53.43;28.20;;;-1.20;99.90;;;;;;4162878;28;20313;-61
2022/12/01 00:19:24;;;;;;;52.03;26.77;;;-1.20;99.90;;;;;;4163532;28;20305;-60
2022/12/01 00:21:26;;;;;;;58.53;28.17;;;-1.20;99.90;;;;;;4162707;28;20966;-63
2022/12/01 00:23:28;;;;;;;59.90;29.53;;;-1.20;99.90;;;;;;4163157;28;20313;-62
2022/12/01 00:25:29;;;;;;;55.57;27.67;;;-1.20;99.90;;;;;;4145145;28;20267;-62
2022/12/01 00:27:30;;;;;;;57.40;27.57;;;-1.20;99.90;;;;;;4163259;28;20321;-62
2022/12/01 00:29:31;;;;;;;60.73;30.03;;;-1.20;99.90;;;;;;4162683;28;20309;-62
2022/12/01 00:31:32;;;;;;;52.57;26.37;;;-1.20;99.90;;;;;;4163101;28;20619;-62
2022/12/01 00:33:33;;;;;;;63.10;29.07;;;-1.20;99.90;;;;;;4163269;28;20321;-61
2022/12/01 00:35:35;;;;;;;64.40;32.13;;;-1.20;99.90;;;;;;4162193;28;20697;-60
2022/12/01 00:37:36;;;;;;;61.93;30.83;;;-1.20;99.90;;;;;;4162956;28;20698;-60
2022/12/01 00:39:37;;;;;;;62.83;32.03;;;-1.30;99.90;;;;;;4162412;28;20376;-61
2022/12/01 00:41:38;;;;;;;60.30;30.90;;;-1.30;99.90;;;;;;4163214;28;20833;-61
2022/12/01 00:43:39;;;;;;;60.20;29.73;;;-1.40;99.90;;;;;;4162116;28;20321;-62
2022/12/01 00:45:42;;;;;;;59.30;30.43;;;-1.50;99.90;;;;;;4163400;28;20325;-61
2022/12/01 00:47:43;;;;;;;59.03;30.43;;;-1.40;99.90;;;;;;4162301;28;20332;-61
2022/12/01 00:49:45;;;;;;;63.47;31.47;;;-1.40;99.90;;;;;;4163429;28;20321;-61
2022/12/01 00:51:46;;;;;;;57.33;29.23;;;-1.50;99.90;;;;;;4161669;28;20282;-61
2022/12/01 00:53:47;;;;;;;63.37;31.53;;;-1.50;99.90;;;;;;4163184;28;20797;-61
2022/12/01 00:55:48;;;;;;;61.93;31.10;;;-1.40;99.90;;;;;;4161895;28;20302;-61
2022/12/01 00:57:49;;;;;;;57.40;30.47;;;-1.40;99.90;;;;;;4162672;28;20278;-61
2022/12/01 00:59:50;;;;;;;54.47;27.80;;;-1.40;99.90;;;;;;4162011;28;20309;-61
2022/12/01 01:01:51;;;;;;;57.73;28.50;;;-1.30;99.90;;;;;;4144908;28;20678;-61
2022/12/01 01:03:53;;;;;;;62.90;28.67;;;-1.30;99.90;;;;;;4162786;28;20793;-62
2022/12/01 01:05:54;;;;;;;60.27;30.77;;;-1.30;99.90;;;;;;4161448;28;20259;-60
2022/12/01 01:07:55;;;;;;;57.20;29.50;;;-1.30;99.90;;;;;;4162789;28;20689;-60
2022/12/01 01:09:56;;;;;;;58.47;29.63;;;-1.30;99.90;;;;;;4161246;28;20262;-61
2022/12/01 01:11:57;;;;;;;53.23;28.47;;;-1.30;99.90;;;;;;4162751;28;20742;-61
2022/12/01 01:13:59;;;;;;;61.67;30.83;;;-1.30;99.90;;;;;;4143833;28;20334;-61
2022/12/01 01:16:06;;;;;;;54.97;29.10;;;-1.30;99.90;;;;;;4144229;28;20299;-61
2022/12/01 01:18:09;;;;;;;64.77;31.60;;;-1.30;99.90;;;;;;4161186;28;20634;-62
2022/12/01 01:20:10;;;;;;;64.13;32.70;;;-1.30;99.90;;;;;;4162762;28;20332;-62
2022/12/01 01:22:12;;;;;;;66.03;34.37;;;-1.40;99.90;;;;;;4161699;28;20275;-60
2022/12/01 01:24:13;;;;;;;62.53;30.33;;;-1.40;99.90;;;;;;4163111;28;20320;-61
2022/12/01 01:26:18;;;;;;;69.67;35.13;;;-1.40;99.90;;;;;;4161294;28;20278;-61
2022/12/01 01:28:19;;;;;;;62.30;31.07;;;-1.40;99.90;;;;;;4162615;28;20317;-62
2022/12/01 01:30:20;;;;;;;66.17;32.20;;;-1.40;99.90;;;;;;4161692;28;20308;-62
2022/12/01 01:32:22;;;;;;;71.17;35.40;;;-1.40;99.90;;;;;;4162382;28;20332;-62
2022/12/01 01:34:23;;;;;;;61.20;31.90;;;-1.40;99.90;;;;;;4161774;28;20271;-61
2022/12/01 01:36:25;;;;;;;58.53;29.43;;;-1.40;99.90;;;;;;4161308;28;21304;-61
2022/12/01 01:38:27;;;;;;;63.60;30.47;;;-1.40;99.90;;;;;;4162737;28;20313;-61
2022/12/01 01:40:28;;;;;;;54.30;28.57;;;-1.50;99.90;;;;;;4161521;28;20328;-61
2022/12/01 01:42:29;;;;;;;50.23;26.13;;;-1.50;99.90;;;;;;4162440;28;20321;-62
2022/12/01 01:44:46;;;;;;;43.23;23.27;;;-1.50;99.90;;;;;;4161300;28;20321;-62
2022/12/01 01:46:47;;;;;;;39.33;20.20;;;-1.50;99.90;;;;;;4161909;28;20274;-61
2022/12/01 01:49:09;;;;;;;34.33;19.13;;;-1.60;99.90;;;;;;4161129;28;20279;-60
2022/12/01 01:51:13;;;;;;;33.93;17.93;;;-1.60;99.90;;;;;;4162362;28;20298;-61
2022/12/01 01:53:14;;;;;;;35.83;17.00;;;-1.70;99.90;;;;;;4160916;28;20832;-61
2022/12/01 01:55:16;;;;;;;33.27;17.00;;;-1.70;99.90;;;;;;4162359;28;20263;-60
2022/12/01 01:57:28;;;;;;;37.07;18.87;;;-1.70;99.90;;;;;;4161162;28;20287;-61
2022/12/01 01:59:37;;;;;;;40.37;19.93;;;-1.70;99.90;;;;;;4162336;28;20662;-61
2022/12/01 02:01:38;;;;;;;37.57;20.03;;;-1.70;99.90;;;;;;4161096;28;20262;-60
2022/12/01 02:03:40;;;;;;;36.03;19.27;;;-1.80;99.90;;;;;;4162285;28;20332;-60
2022/12/01 02:05:43;;;;;;;41.77;20.63;;;-1.70;99.90;;;;;;4160816;28;20275;-60
2022/12/01 02:07:46;;;;;;;36.33;19.00;;;-1.70;99.90;;;;;;4161908;28;20805;-61
2022/12/01 02:09:47;;;;;;;41.07;20.07;;;-1.70;99.90;;;;;;4161341;28;20747;-61
2022/12/01 02:12:17;;;;;;;39.33;20.53;;;-1.70;99.90;;;;;;4162291;28;20267;-62
2022/12/01 02:15:03;;;;;;;41.87;19.73;;;-1.70;99.90;;;;;;4160603;28;20267;-61
2022/12/01 02:17:52;;;;;;;48.00;24.37;;;-1.70;99.90;;;;;;4161373;28;20690;-61
2022/12/01 02:20:11;;;;;;;46.30;22.37;;;-1.80;99.90;;;;;;4125846;28;20267;-62
2022/12/01 02:22:29;;;;;;;45.90;23.50;;;-1.80;99.90;;;;;;4160398;28;20263;-61
2022/12/01 02:24:56;;;;;;;59.43;29.23;;;-1.80;99.90;;;;;;4161398;28;20279;-62
2022/12/01 02:27:29;;;;;;;62.33;30.63;;;-1.80;99.90;;;;;;4160413;28;21312;-62
2022/12/01 02:30:10;;;;;;;55.83;28.27;;;-1.80;99.90;;;;;;4161608;28;20271;-61
2022/12/01 02:32:46;;;;;;;55.17;26.92;;;-2.00;99.90;;;;;;4160749;28;20263;-62
2022/12/01 02:35:07;;;;;;;57.20;28.83;;;-2.00;99.90;;;;;;4094987;28;20031;-61
2022/12/01 02:37:38;;;;;;;58.75;27.77;;;-2.10;99.90;;;;;;4141114;28;20356;-62
2022/12/01 02:39:54;;;;;;;62.13;29.40;;;-2.10;99.90;;;;;;4144817;28;20092;-62
2022/12/01 02:42:10;;;;;;;55.37;27.30;;;-2.20;99.90;;;;;;4145576;28;20666;-61
2022/12/01 02:44:29;;;;;;;61.00;30.57;;;-2.20;99.90;;;;;;4142695;28;20252;-62
2022/12/01 02:46:36;;;;;;;57.70;27.17;;;-2.20;99.90;;;;;;4145348;28;20361;-61
2022/12/01 02:48:43;;;;;;;54.70;27.40;;;-2.20;99.90;;;;;;4144011;28;20309;-61
2022/12/01 02:50:45;;;;;;;59.40;28.33;;;-2.20;99.90;;;;;;4145416;28;20322;-61
2022/12/01 02:52:47;;;;;;;61.23;29.10;;;-2.20;99.90;;;;;;4160187;28;20328;-61
2022/12/01 02:54:48;;;;;;;57.20;28.77;;;-2.20;99.90;;;;;;4161061;28;20270;-62
2022/12/01 02:56:53;;;;;;;56.53;29.90;;;-2.20;99.90;;;;;;4160870;28;20291;-62
2022/12/01 02:58:54;;;;;;;56.57;28.70;;;-2.20;99.90;;;;;;4161054;28;20324;-63
2022/12/01 03:01:36;;;;;;;58.00;28.03;;;-2.20;99.90;;;;;;4160544;28;20281;-62
2022/12/01 03:04:03;;;;;;;60.10;28.43;;;-2.20;99.90;;;;;;4139408;28;20259;-61
2022/12/01 03:06:15;;;;;;;53.00;28.77;;;-2.30;99.90;;;;;;4159691;28;20389;-60
2022/12/01 03:08:45;;;;;;;57.37;27.77;;;-2.30;99.90;;;;;;4161615;28;20271;-61
2022/12/01 03:10:55;;;;;;;55.13;27.90;;;-2.20;99.90;;;;;;4143074;28;20836;-62
2022/12/01 03:13:02;;;;;;;52.60;26.73;;;-2.20;99.90;;;;;;4161603;28;20485;-63
2022/12/01 03:15:03;;;;;;;51.43;26.87;;;-2.20;99.90;;;;;;4160541;28;20099;-61
2022/12/01 03:17:09;;;;;;;60.77;30.40;;;-2.20;99.90;;;;;;4161527;28;20294;-61
2022/12/01 03:19:43;;;;;;;56.97;28.73;;;-2.20;99.90;;;;;;4160167;28;20341;-60
2022/12/01 03:21:54;;;;;;;61.70;29.20;;;-2.20;99.90;;;;;;4161665;28;20332;-61
2022/12/01 03:24:07;;;;;;;47.17;25.27;;;-2.10;99.90;;;;;;4160551;28;20266;-60
2022/12/01 03:26:15;;;;;;;53.90;26.33;;;-2.20;99.90;;;;;;4161007;28;20275;-60
2022/12/01 03:28:20;;;;;;;54.80;26.03;;;-2.10;99.90;;;;;;4159653;28;20675;-61
2022/12/01 03:30:27;;;;;;;56.73;27.57;;;-2.10;99.90;;;;;;4161719;28;20309;-60
2022/12/01 03:32:48;;;;;;;57.50;26.83;;;-2.10;99.90;;;;;;4160465;28;20321;-60
2022/12/01 03:34:56;;;;;;;50.43;26.93;;;-2.10;99.90;;;;;;4161425;28;20275;-60
2022/12/01 03:37:03;;;;;;;52.40;27.37;;;-2.10;99.90;;;;;;4159255;28;20356;-61
2022/12/01 03:39:11;;;;;;;53.80;27.23;;;-2.10;99.90;;;;;;4163282;28;20283;-61
2022/12/01 03:41:18;;;;;;;48.70;24.97;;;-2.10;99.90;;;;;;4146984;28;20791;-61
2022/12/01 03:43:25;;;;;;;54.13;25.97;;;-2.20;99.90;;;;;;4148117;28;20325;-62
2022/12/01 03:46:03;;;;;;;52.03;24.73;;;-2.20;99.90;;;;;;4146731;28;20275;-61
2022/12/01 03:48:06;;;;;;;64.27;27.93;;;-2.10;99.90;;;;;;4147908;28;20333;-61
2022/12/01 03:50:12;;;;;;;54.53;28.60;;;-2.20;99.90;;;;;;4146432;28;20818;-63
2022/12/01 03:52:25;;;;;;;61.37;29.07;;;-2.20;99.90;;;;;;4147111;28;20354;-62
2022/12/01 03:54:38;;;;;;;58.07;28.97;;;-2.30;99.90;;;;;;4146372;28;20280;-61
2022/12/01 03:56:49;;;;;;;53.30;28.27;;;-2.40;99.90;;;;;;4147315;28;20695;-61
2022/12/01 03:58:54;;;;;;;51.78;25.92;;;-2.40;99.90;;;;;;4128914;28;20327;-62
2022/12/01 04:00:56;;;;;;;58.50;27.00;;;-2.40;99.90;;;;;;4147428;28;20104;-61
2022/12/01 04:02:59;;;;;;;53.63;27.13;;;-2.50;99.90;;;;;;4146576;28;20351;-61
2022/12/01 04:05:00;;;;;;;57.87;27.17;;;-2.50;99.90;;;;;;4147474;28;20322;-61
2022/12/01 04:07:02;;;;;;;56.00;26.33;;;-2.40;99.90;;;;;;4162627;28;20663;-60
2022/12/01 04:09:03;;;;;;;56.83;28.23;;;-2.40;99.90;;;;;;4164005;28;20271;-60
2022/12/01 04:12:28;;;;;;;49.97;25.70;;;-2.40;99.90;;;;;;4145107;28;20311;-61
2022/12/01 04:13:25;;;;;;;47.00;23.30;;;-2.40;99.90;;;;;;4149296;28;20329;-60
2022/12/01 04:15:27;;;;;;;48.50;24.07;;;-2.30;99.90;;;;;;4162341;28;20317;-64
2022/12/01 04:17:29;;;;;;;51.00;26.03;;;-2.30;99.90;;;;;;4163881;28;20302;-61
2022/12/01 04:19:30;;;;;;;45.47;23.30;;;-2.30;99.90;;;;;;4161895;28;20330;-62
2022/12/01 04:21:32;;;;;;;48.87;25.23;;;-2.30;99.90;;;;;;4163925;28;20785;-61
2022/12/01 04:26:01;;;;;;;51.47;25.57;;;-2.30;99.90;;;;;;4163777;28;20775;-61
2022/12/01 04:28:02;;;;;;;52.23;25.27;;;-2.30;99.90;;;;;;4162743;28;20305;-61
2022/12/01 04:30:05;;;;;;;50.37;25.87;;;-2.30;99.90;;;;;;4163715;28;20309;-60
2022/12/01 04:32:06;;;;;;;48.10;25.87;;;-2.30;99.90;;;;;;4162463;28;20305;-63
2022/12/01 04:34:08;;;;;;;51.33;24.60;;;-2.30;99.90;;;;;;4163466;28;20255;-61
2022/12/01 04:36:10;;;;;;;49.83;25.83;;;-2.30;99.90;;;;;;4162810;28;20313;-62
2022/12/01 04:38:11;;;;;;;47.40;24.83;;;-2.30;99.90;;;;;;4162293;28;20329;-61
2022/12/01 04:40:12;;;;;;;46.90;25.13;;;-2.20;99.90;;;;;;4163161;28;20420;-61
2022/12/01 04:42:13;;;;;;;47.50;25.10;;;-2.20;99.90;;;;;;4161619;28;20275;-61
2022/12/01 04:44:14;;;;;;;50.77;26.23;;;-2.30;99.90;;;;;;4163319;28;20259;-60
2022/12/01 04:46:16;;;;;;;50.13;24.73;;;-2.20;99.90;;;;;;4162162;28;20275;-60
2022/12/01 04:48:17;;;;;;;47.50;24.70;;;-2.20;99.90;;;;;;4163004;28;20747;-60
2022/12/01 04:50:18;;;;;;;53.43;25.53;;;-2.20;99.90;;;;;;4162106;28;20393;-61
2022/12/01 04:52:19;;;;;;;55.93;27.43;;;-2.30;99.90;;;;;;4162484;28;20282;-59
2022/12/01 04:54:21;;;;;;;57.67;29.50;;;-2.30;99.90;;;;;;4161721;28;20328;-60
2022/12/01 04:56:22;;;;;;;55.83;27.73;;;-2.30;99.90;;;;;;4162836;28;20705;-61
2022/12/01 04:58:23;;;;;;;63.80;30.67;;;-2.40;99.90;;;;;;4162074;28;20259;-61
2022/12/01 05:00:24;;;;;;;56.07;27.77;;;-2.40;99.90;;;;;;4162932;28;20756;-61
2022/12/01 05:02:26;;;;;;;57.30;27.20;;;-2.40;99.90;;;;;;4162252;28;20770;-61
2022/12/01 05:04:27;;;;;;;55.97;27.70;;;-2.40;99.90;;;;;;4162917;28;20305;-61
2022/12/01 05:06:28;;;;;;;58.00;27.93;;;-2.50;99.90;;;;;;4161886;28;20689;-61
2022/12/01 05:08:29;;;;;;;57.73;29.60;;;-2.50;99.90;;;;;;4162201;28;20274;-62
2022/12/01 05:10:35;;;;;;;55.00;28.53;;;-2.50;99.90;;;;;;4161885;28;20340;-62
2022/12/01 05:12:36;;;;;;;58.27;27.60;;;-2.50;99.90;;;;;;4162242;28;20787;-66
2022/12/01 05:14:37;;;;;;;59.53;28.37;;;-2.50;99.90;;;;;;4161818;28;20279;-60
2022/12/01 05:16:38;;;;;;;58.13;28.03;;;-2.50;99.90;;;;;;4160814;28;20298;-61
2022/12/01 05:18:40;;;;;;;50.13;26.03;;;-2.50;99.90;;;;;;4162571;28;20262;-61
2022/12/01 05:20:56;;;;;;;56.97;27.87;;;-2.40;99.90;;;;;;4161087;28;20759;-61
2022/12/01 05:22:58;;;;;;;51.93;27.30;;;-2.40;99.90;;;;;;4162200;28;21027;-63
2022/12/01 05:24:59;;;;;;;54.63;27.70;;;-2.40;99.90;;;;;;4161068;28;20317;-61
2022/12/01 05:27:00;;;;;;;60.93;29.80;;;-2.40;99.90;;;;;;4162676;28;20255;-62
2022/12/01 05:29:02;;;;;;;54.70;27.80;;;-2.40;99.90;;;;;;4161408;28;20263;-60
2022/12/01 05:31:03;;;;;;;67.73;32.33;;;-2.40;99.90;;;;;;4162471;28;20274;-63
2022/12/01 05:33:05;;;;;;;50.80;25.87;;;-2.40;99.90;;;;;;4161180;28;20325;-62
2022/12/01 05:35:07;;;;;;;52.83;27.33;;;-2.40;99.90;;;;;;4162734;28;20267;-60
2022/12/01 05:37:08;;;;;;;50.97;26.23;;;-2.40;99.90;;;;;;4160933;28;20302;-62
2022/12/01 05:39:09;;;;;;;64.57;30.50;;;-2.40;99.90;;;;;;4162499;28;20739;-64
2022/12/01 05:41:10;;;;;;;59.53;28.80;;;-2.40;99.90;;;;;;4161142;28;20329;-64
2022/12/01 05:43:11;;;;;;;66.33;30.93;;;-2.40;99.90;;;;;;4160778;28;20825;-61
2022/12/01 05:45:12;;;;;;;56.40;28.83;;;-2.40;99.90;;;;;;4161264;28;20247;-63
2022/12/01 05:47:14;;;;;;;55.40;27.57;;;-2.40;99.90;;;;;;4161528;28;20994;-63
2022/12/01 05:49:15;;;;;;;59.57;29.43;;;-2.40;99.90;;;;;;4161996;28;20316;-63
2022/12/01 05:51:16;;;;;;;58.77;27.63;;;-2.30;99.90;;;;;;4160444;28;20263;-63
2022/12/01 05:53:18;;;;;;;64.13;30.73;;;-2.30;99.90;;;;;;4161836;28;20643;-61
2022/12/01 05:55:19;;;;;;;55.70;27.97;;;-2.30;99.90;;;;;;4160610;28;20313;-61
2022/12/01 05:57:20;;;;;;;58.33;27.63;;;-2.40;99.90;;;;;;4162096;28;20290;-62
2022/12/01 05:59:21;;;;;;;126.47;53.60;;;-2.40;99.90;;;;;;4161019;28;20324;-61
2022/12/01 06:01:23;;;;;;;84.73;41.23;;;-2.40;99.90;;;;;;4161638;28;20278;-61
2022/12/01 06:03:25;;;;;;;56.13;29.53;;;-2.40;99.90;;;;;;4161030;28;20317;-61
2022/12/01 06:05:26;;;;;;;61.40;31.37;;;-2.30;99.90;;;;;;4161588;28;20287;-61
2022/12/01 06:07:27;;;;;;;65.13;32.77;;;-2.30;99.90;;;;;;4160344;28;20329;-62
2022/12/01 06:09:28;;;;;;;64.50;31.90;;;-2.30;99.90;;;;;;4161410;28;20353;-61
2022/12/01 06:11:29;;;;;;;58.43;29.80;;;-2.30;99.90;;;;;;4161025;28;20318;-60
2022/12/01 06:13:30;;;;;;;55.43;29.77;;;-2.30;99.90;;;;;;4161575;28;20686;-61
2022/12/01 06:15:32;;;;;;;66.73;31.10;;;-2.30;99.90;;;;;;4160754;28;20670;-62
2022/12/01 06:17:33;;;;;;;61.20;31.03;;;-2.30;99.90;;;;;;4160798;28;20368;-61
2022/12/01 06:19:34;;;;;;;71.43;35.07;;;-2.20;99.90;;;;;;4161548;28;20255;-61
2022/12/01 06:21:35;;;;;;;66.30;35.97;;;-2.20;99.90;;;;;;4160593;28;20270;-63
2022/12/01 06:23:36;;;;;;;67.90;34.37;;;-2.20;99.90;;;;;;4161802;28;20329;-61
2022/12/01 06:25:38;;;;;;;67.47;33.73;;;-2.20;99.90;;;;;;4160017;28;20329;-61
2022/12/01 06:27:39;;;;;;;72.13;32.10;;;-2.20;99.90;;;;;;4161854;28;20663;-64
2022/12/01 06:29:40;;;;;;;73.93;32.57;;;-2.20;99.90;;;;;;4160654;28;20255;-61
2022/12/01 06:31:41;;;;;;;61.73;31.67;;;-2.30;99.90;;;;;;4161249;28;20276;-64
2022/12/01 06:33:42;;;;;;;61.17;31.67;;;-2.30;99.90;;;;;;4160714;28;20274;-64
2022/12/01 06:35:44;;;;;;;65.07;32.30;;;-2.20;99.90;;;;;;4161820;28;20321;-62
2022/12/01 06:37:45;;;;;;;62.90;31.43;;;-2.10;99.90;;;;;;4160022;28;20333;-62
2022/12/01 06:39:46;;;;;;;60.17;30.60;;;-2.00;99.90;;;;;;4161515;28;20270;-62
2022/12/01 06:41:47;;;;;;;65.77;31.37;;;-1.90;99.90;;;;;;4160641;28;20259;-62
2022/12/01 06:43:48;;;;;;;58.27;29.47;;;-1.80;99.90;;;;;;4161093;28;20294;-63
2022/12/01 06:45:50;;;;;;;56.53;29.20;;;-1.50;99.90;;;;;;4160414;28;20646;-63
2022/12/01 06:47:54;;;;;;;52.80;27.53;;;-1.40;99.90;;;;;;4161288;28;20267;-63
2022/12/01 06:49:56;;;;;;;54.73;27.47;;;-1.10;99.90;;;;;;4161298;28;20247;-61
2022/12/01 06:51:57;;;;;;;52.93;28.63;;;-0.90;99.90;;;;;;4160189;28;20309;-63
2022/12/01 06:53:58;;;;;;;62.40;32.40;;;-0.80;99.90;;;;;;4161234;28;20316;-63
2022/12/01 06:56:04;;;;;;;55.23;30.10;;;-0.70;99.90;;;;;;4170258;28;20320;-63
2022/12/01 06:58:05;;;;;;;61.57;32.17;;;-0.60;99.90;;;;;;4162301;28;20302;-62
2022/12/01 07:00:07;;;;;;;62.20;30.00;;;-0.50;99.90;;;;;;4158602;28;20804;-62
2022/12/01 07:02:12;;;;;;;69.43;31.57;;;-0.40;99.90;;;;;;4161376;28;20279;-63
2022/12/01 07:04:13;;;;;;;52.63;28.47;;;-0.30;99.90;;;;;;4159717;28;20615;-62
2022/12/01 07:06:15;;;;;;;62.17;30.10;;;-0.20;99.90;;;;;;4160379;28;20360;-62
2022/12/01 07:08:16;;;;;;;58.47;29.70;;;0.00;99.90;;;;;;4158748;28;20278;-60
2022/12/01 07:10:17;;;;;;;53.27;27.57;;;0.10;99.90;;;;;;4160260;28;20282;-61
2022/12/01 07:12:18;;;;;;;51.33;27.63;;;0.30;99.90;;;;;;4159935;28;20274;-62
2022/12/01 07:14:24;;;;;;;52.23;28.70;;;0.70;99.90;;;;;;4164068;28;20755;-62
2022/12/01 07:16:25;;;;;;;50.50;26.83;;;1.00;99.90;;;;;;4163227;28;20867;-64
2022/12/01 07:18:26;;;;;;;58.60;30.53;;;1.20;99.90;;;;;;4164373;28;20282;-61
2022/12/01 07:20:27;;;;;;;56.03;30.23;;;1.30;99.90;;;;;;4163566;28;20267;-62
2022/12/01 07:22:28;;;;;;;61.43;31.23;;;1.30;99.90;;;;;;4162963;28;20275;-62
2022/12/01 07:24:30;;;;;;;53.97;29.77;;;1.30;99.90;;;;;;4164117;28;20270;-63
2022/12/01 07:26:31;;;;;;;56.27;28.90;;;1.60;99.90;;;;;;4163466;28;20262;-62
2022/12/01 07:28:32;;;;;;;54.30;30.07;;;2.10;99.90;;;;;;4162766;28;20268;-62
2022/12/01 07:30:34;;;;;;;55.07;35.50;;;2.60;99.90;;;;;;4162779;28;20332;-63
2022/12/01 07:32:35;;;;;;;59.23;32.53;;;2.70;99.90;;;;;;4163830;28;20689;-63
2022/12/01 07:34:37;;;;;;;54.00;29.23;;;2.80;99.90;;;;;;4162530;28;20103;-63
2022/12/01 07:36:38;;;;;;;50.80;29.70;;;2.90;99.90;;;;;;4163813;28;20318;-62
2022/12/01 07:38:40;;;;;;;56.17;31.00;;;3.00;99.90;;;;;;4162550;28;20045;-62
2022/12/01 07:40:41;;;;;;;51.17;31.13;;;3.30;99.90;;;;;;4164370;28;20084;-63
2022/12/01 07:42:42;;;;;;;58.13;33.93;;;3.50;99.90;;;;;;4163095;28;20034;-62
2022/12/01 07:44:43;;;;;;;51.33;29.43;;;3.50;99.90;;;;;;4163237;28;20029;-62
2022/12/01 07:46:44;;;;;;;53.70;31.53;;;3.40;99.90;;;;;;4162791;28;20096;-62
2022/12/01 07:48:46;;;;;;;45.10;27.20;;;3.40;99.90;;;;;;4163863;28;20017;-63
2022/12/01 07:50:47;;;;;;;46.20;25.77;;;3.50;99.90;;;;;;4163204;28;20071;-63
2022/12/01 07:52:49;;;;;;;47.77;26.23;;;3.50;99.90;;;;;;4162645;28;20041;-61
2022/12/01 07:54:51;;;;;;;45.70;27.00;;;3.10;99.90;;;;;;4163127;28;20022;-62
2022/12/01 07:56:53;;;;;;;45.43;26.40;;;2.90;99.90;;;;;;4162116;28;20658;-61
2022/12/01 07:58:54;;;;;;;46.40;27.07;;;2.80;99.90;;;;;;4163058;28;20046;-63
2022/12/01 08:00:55;;;;;;;42.57;26.07;;;2.90;99.90;;;;;;4162402;28;20030;-61
2022/12/01 08:02:56;;;;;;;47.67;27.13;;;3.10;99.90;;;;;;4163952;28;20436;-64
2022/12/01 08:04:58;;;;;;;49.50;26.83;;;3.10;99.90;;;;;;4161885;28;20429;-67
2022/12/01 08:06:59;;;;;;;53.83;28.30;;;3.10;99.90;;;;;;4163665;28;20029;-64
2022/12/01 08:09:00;;;;;;;47.07;26.37;;;3.20;99.90;;;;;;4161834;28;20317;-61
2022/12/01 08:11:04;;;;;;;46.77;27.57;;;3.20;99.90;;;;;;4162552;28;20279;-61
2022/12/01 08:13:05;;;;;;;42.57;24.30;;;3.20;99.90;;;;;;4160537;28;20129;-62
2022/12/01 08:15:06;;;;;;;46.43;23.97;;;3.10;99.90;;;;;;4162683;28;20441;-61
2022/12/01 08:17:08;;;;;;;42.10;23.30;;;3.10;99.90;;;;;;4161921;28;20312;-63
2022/12/01 08:19:09;;;;;;;44.47;25.13;;;3.10;99.90;;;;;;4163024;28;20528;-69
2022/12/01 08:21:15;;;;;;;43.60;26.47;;;3.10;99.90;;;;;;4160733;28;20279;-62
2022/12/01 08:23:16;;;;;;;45.77;25.63;;;3.20;99.90;;;;;;4161814;28;20616;-70
2022/12/01 08:25:17;;;;;;;50.07;30.40;;;3.30;99.90;;;;;;4160620;28;20270;-66
2022/12/01 08:27:18;;;;;;;63.87;34.67;;;3.40;99.90;;;;;;4162514;28;20321;-63
2022/12/01 08:29:19;;;;;;;46.43;25.63;;;3.60;99.90;;;;;;4162428;28;20666;-64
2022/12/01 08:31:24;;;;;;;43.93;23.50;;;3.70;99.90;;;;;;4161781;28;20296;-63
2022/12/01 08:33:25;;;;;;;36.33;21.53;;;3.70;99.90;;;;;;4149724;28;20675;-61
2022/12/01 08:35:27;;;;;;;36.07;21.47;;;3.60;99.90;;;;;;4145666;28;20337;-64
2022/12/01 08:37:28;;;;;;;42.70;21.03;;;3.60;99.90;;;;;;4147034;28;20350;-64
2022/12/01 08:39:30;;;;;;;38.40;21.37;;;3.50;99.90;;;;;;4145883;28;20337;-64
2022/12/01 08:41:31;;;;;;;32.67;19.70;;;3.50;99.90;;;;;;4152689;28;20330;-63
2022/12/01 08:43:32;;;;;;;31.70;19.03;;;3.40;99.90;;;;;;4161741;28;20275;-64
2022/12/01 08:45:33;;;;;;;33.20;20.57;;;3.50;99.90;;;;;;4163268;28;20282;-62
2022/12/01 08:47:34;;;;;;;33.53;18.73;;;3.50;99.90;;;;;;4161715;28;20617;-64
2022/12/01 08:49:35;;;;;;;29.50;17.90;;;3.40;99.90;;;;;;4162848;28;20340;-63
2022/12/01 08:51:36;;;;;;;36.57;18.83;;;3.40;99.90;;;;;;4161886;28;20705;-67
2022/12/01 08:53:40;;;;;;;31.83;18.50;;;3.40;99.90;;;;;;4161854;28;20259;-68
2022/12/01 08:55:41;;;;;;;33.37;17.50;;;3.50;99.90;;;;;;4162064;28;20812;-64
2022/12/01 08:57:42;;;;;;;30.23;16.13;;;3.60;99.90;;;;;;4161482;28;20286;-60
2022/12/01 08:59:43;;;;;;;30.23;17.10;;;3.60;99.90;;;;;;4162365;28;20251;-64
2022/12/01 09:01:53;;;;;;;25.30;14.60;;;3.40;99.90;;;;;;4161418;28;20719;-64
2022/12/01 09:04:04;;;;;;;28.80;15.77;;;3.40;99.90;;;;;;4162651;28;20320;-64
2022/12/01 09:06:10;;;;;;;26.97;15.03;;;3.40;99.90;;;;;;4161956;28;20026;-65
2022/12/01 09:08:30;;;;;;;24.93;15.67;;;3.20;99.90;;;;;;4162144;28;20279;-64
2022/12/01 09:10:31;;;;;;;32.50;16.60;;;3.10;99.90;;;;;;4162577;28;20262;-67
2022/12/01 09:12:32;;;;;;;30.67;16.53;;;3.10;99.90;;;;;;4161993;28;20262;-64
2022/12/01 09:14:38;;;;;;;32.10;16.57;;;3.10;99.90;;;;;;4161200;28;20305;-66
2022/12/01 09:16:40;;;;;;;27.83;17.20;;;3.10;99.90;;;;;;4162446;28;20309;-66
2022/12/01 09:18:42;;;;;;;32.50;17.57;;;3.20;99.90;;;;;;4161436;28;20287;-65
2022/12/01 09:20:43;;;;;;;32.57;19.17;;;3.20;99.90;;;;;;4162912;28;20317;-65
2022/12/01 09:22:44;;;;;;;24.67;14.47;;;3.30;99.90;;;;;;4161237;28;20317;-68
2022/12/01 09:24:46;;;;;;;28.47;16.23;;;3.40;99.90;;;;;;4162305;28;20271;-64
2022/12/01 09:26:47;;;;;;;28.33;16.33;;;3.40;99.90;;;;;;4160369;28;20305;-64
2022/12/01 09:28:51;;;;;;;25.97;15.33;;;3.40;99.90;;;;;;4161743;28;20286;-66
2022/12/01 09:30:52;;;;;;;27.17;15.03;;;3.40;99.90;;;;;;4160608;28;20262;-63
2022/12/01 09:32:54;;;;;;;29.07;14.33;;;3.40;99.90;;;;;;4161946;28;20682;-64
2022/12/01 09:34:55;;;;;;;27.80;14.20;;;3.50;99.90;;;;;;4161121;28;20309;-64
2022/12/01 09:36:57;;;;;;;27.70;14.50;;;3.50;99.90;;;;;;4161178;28;20262;-66
2022/12/01 09:38:58;;;;;;;24.20;13.97;;;3.50;99.90;;;;;;4161445;28;20286;-65
2022/12/01 09:41:39;;;;;;;27.23;13.97;;;3.50;99.90;;;;;;4161480;28;20829;-67
2022/12/01 09:43:55;;;;;;;25.05;14.07;;;3.50;99.90;;;;;;4160597;28;20345;-65
2022/12/01 09:46:01;;;;;;;22.93;13.60;;;3.50;99.90;;;;;;4176031;28;20394;-64
2022/12/01 09:48:05;;;;;;;25.93;14.13;;;3.60;99.90;;;;;;4160639;28;20274;-62
2022/12/01 09:50:10;;;;;;;23.73;14.00;;;3.50;99.90;;;;;;4161511;28;20340;-63
2022/12/01 09:52:14;;;;;;;27.07;15.00;;;3.60;99.90;;;;;;4160862;28;20263;-63
2022/12/01 09:54:15;;;;;;;26.57;14.63;;;3.70;99.90;;;;;;4161346;28;20274;-64
2022/12/01 09:56:23;;;;;;;29.27;15.50;;;3.80;99.90;;;;;;4160230;28;20321;-66
2022/12/01 09:58:28;;;;;;;22.23;13.43;;;3.80;99.90;;;;;;4161518;28;20290;-60
2022/12/01 10:00:33;;;;;;;20.73;11.87;;;3.90;99.90;;;;;;4143057;28;20337;-61
2022/12/01 10:02:39;;;;;;;19.47;12.23;;;4.00;99.90;;;;;;4161403;28;20259;-65
2022/12/01 10:04:45;;;;;;;20.27;12.17;;;4.10;99.90;;;;;;4160674;28;20631;-63
2022/12/01 10:07:03;;;;;;;21.37;12.33;;;4.20;99.90;;;;;;4160714;28;20837;-65
2022/12/01 10:09:40;;;;;;;20.23;11.37;;;4.30;99.90;;;;;;4160781;28;20275;-62
2022/12/01 10:11:44;;;;;;;17.47;9.13;;;4.50;99.90;;;;;;4145790;28;20279;-62
2022/12/01 10:13:45;;;;;;;16.17;9.40;;;4.70;99.90;;;;;;4144313;28;20763;-62
2022/12/01 10:15:50;;;;;;;17.17;9.57;;;4.80;99.90;;;;;;4144695;28;20275;-63
2022/12/01 10:18:06;;;;;;;16.77;10.67;;;4.90;99.90;;;;;;4154281;28;21260;-61
2022/12/01 10:20:19;;;;;;;19.53;10.23;;;5.00;99.90;;;;;;4149539;28;20294;-64
2022/12/01 10:22:26;;;;;;;20.50;9.93;;;5.10;99.90;;;;;;4160695;28;20324;-64
2022/12/01 10:24:54;;;;;;;14.57;9.60;;;5.20;99.90;;;;;;4160319;28;20088;-64
2022/12/01 10:27:35;;;;;;;15.83;9.30;;;5.30;99.90;;;;;;4160507;28;20305;-63
2022/12/01 10:30:11;;;;;;;16.60;9.53;;;5.40;99.90;;;;;;4143033;28;20034;-64
2022/12/01 10:32:44;;;;;;;13.67;8.43;;;5.50;99.90;;;;;;4142930;28;20291;-64
2022/12/01 10:34:47;;;;;;;13.07;6.80;;;5.50;99.90;;;;;;4157791;28;20072;-62
2022/12/01 10:36:48;;;;;;;11.83;5.83;;;5.50;99.90;;;;;;4159777;28;20152;-63
2022/12/01 10:38:49;;;;;;;10.47;6.43;;;5.60;99.90;;;;;;4161435;28;20415;-63
2022/12/01 10:40:52;;;;;;;13.60;6.67;;;5.60;99.90;;;;;;4160546;28;20029;-63
2022/12/01 10:42:54;;;;;;;13.77;7.13;;;5.60;99.90;;;;;;4161605;28;20033;-63